Time;durP1;ratioP1;P1;durP2;ratioP2;P2;SDS_P1;SDS_P2;PMS_P1;PMS_P2;Temp;Humidity;BMP_temperature;BMP_pressure;BME280_temperature;BME280_humidity;BME280_pressure;Samples;Min_cycle;Max_cycle;Signal;HPM_P1;HPM_P2
2022/07/31 00:00:30;;;;;;;4.70;3.72;;;21.60;59.20;;;;;;5004398;28;20045;-46
2022/07/31 00:02:56;;;;;;;4.80;3.88;;;21.70;58.60;;;;;;5004158;28;20084;-46
2022/07/31 00:05:23;;;;;;;5.90;4.32;;;21.70;58.30;;;;;;5004440;28;20033;-48
2022/07/31 00:07:49;;;;;;;5.18;3.95;;;21.60;58.10;;;;;;5004859;28;20136;-47
2022/07/31 00:10:15;;;;;;;5.90;4.38;;;21.50;57.60;;;;;;5005070;28;20127;-46
2022/07/31 00:12:41;;;;;;;5.22;4.20;;;21.50;57.90;;;;;;5004865;28;20030;-48
2022/07/31 00:15:11;;;;;;;5.70;4.47;;;21.40;57.70;;;;;;5004063;28;20041;-48
2022/07/31 00:17:38;;;;;;;5.80;4.07;;;21.40;58.00;;;;;;5004864;28;20034;-48
2022/07/31 00:20:05;;;;;;;5.25;4.43;;;21.30;58.50;;;;;;5004053;28;20057;-47
2022/07/31 00:22:31;;;;;;;6.32;4.32;;;21.30;58.20;;;;;;5002940;28;20026;-48
2022/07/31 00:24:56;;;;;;;4.90;3.78;;;21.20;58.50;;;;;;5004413;28;20030;-47
2022/07/31 00:27:22;;;;;;;4.80;3.90;;;21.20;58.50;;;;;;5003990;28;20026;-46
2022/07/31 00:29:48;;;;;;;5.78;4.15;;;21.30;58.70;;;;;;5004361;28;20037;-49
2022/07/31 00:32:14;;;;;;;5.85;4.15;;;21.20;58.30;;;;;;5004329;28;20068;-47
2022/07/31 00:34:41;;;;;;;5.35;3.88;;;21.20;58.20;;;;;;5003809;28;20030;-46
2022/07/31 00:37:07;;;;;;;4.32;3.67;;;21.20;58.30;;;;;;4998481;28;20567;-47
2022/07/31 00:39:33;;;;;;;7.25;3.60;;;21.10;58.30;;;;;;5003884;28;20128;-47
2022/07/31 00:41:58;;;;;;;4.30;3.40;;;21.10;58.50;;;;;;5004759;28;20134;-47
2022/07/31 00:44:24;;;;;;;5.38;3.72;;;21.10;58.70;;;;;;5003614;28;20030;-47
2022/07/31 00:46:50;;;;;;;5.22;3.92;;;21.10;58.60;;;;;;5003843;28;20760;-47
2022/07/31 00:49:16;;;;;;;5.60;4.13;;;21.20;58.20;;;;;;5004391;28;20036;-49
2022/07/31 00:51:42;;;;;;;5.07;3.90;;;21.20;58.50;;;;;;5003542;28;20026;-48
2022/07/31 00:54:09;;;;;;;5.88;3.92;;;21.20;58.10;;;;;;5003792;28;20044;-47
2022/07/31 00:56:35;;;;;;;5.13;3.92;;;21.20;58.30;;;;;;5002602;28;20033;-47
2022/07/31 00:59:01;;;;;;;6.50;4.13;;;21.20;58.00;;;;;;5003932;28;20385;-47
2022/07/31 01:01:27;;;;;;;6.13;4.13;;;21.20;58.10;;;;;;5004366;28;20032;-47
2022/07/31 01:03:52;;;;;;;4.38;3.40;;;21.20;57.60;;;;;;5003013;28;20303;-48
2022/07/31 01:06:18;;;;;;;4.80;3.58;;;21.10;58.30;;;;;;5003793;28;20038;-47
2022/07/31 01:08:44;;;;;;;4.88;4.18;;;21.20;58.20;;;;;;5002870;28;20030;-47
2022/07/31 01:11:21;;;;;;;5.53;4.43;;;21.10;57.60;;;;;;5002360;28;20037;-48
2022/07/31 01:13:55;;;;;;;4.93;4.13;;;21.10;57.60;;;;;;5003308;28;20072;-49
2022/07/31 01:16:25;;;;;;;4.95;3.92;;;21.00;57.80;;;;;;5002985;28;20033;-49
2022/07/31 01:18:54;;;;;;;6.63;4.30;;;21.00;58.40;;;;;;5004042;28;20033;-48
2022/07/31 01:21:26;;;;;;;5.00;3.80;;;21.00;58.60;;;;;;5002591;28;20041;-46
2022/07/31 01:24:10;;;;;;;5.40;4.60;;;21.00;58.40;;;;;;5003122;28;20110;-49
2022/07/31 01:26:47;;;;;;;5.00;3.92;;;21.00;57.90;;;;;;5002500;28;20029;-47
2022/07/31 01:29:33;;;;;;;6.40;4.47;;;21.00;58.30;;;;;;5003680;28;20033;-46
2022/07/31 01:32:09;;;;;;;5.10;4.00;;;21.00;58.30;;;;;;5003790;28;20034;-48
2022/07/31 01:35:10;;;;;;;4.72;3.90;;;21.00;58.40;;;;;;5002878;28;20708;-47
2022/07/31 01:37:42;;;;;;;4.88;4.03;;;20.90;58.30;;;;;;4998979;28;20061;-46
2022/07/31 01:40:12;;;;;;;5.63;4.10;;;20.90;58.60;;;;;;5003205;28;20109;-48
2022/07/31 01:42:41;;;;;;;5.78;4.57;;;20.90;58.40;;;;;;5003145;28;20042;-47
2022/07/31 01:45:09;;;;;;;4.82;4.03;;;20.90;58.40;;;;;;5003275;28;20689;-46
2022/07/31 01:47:38;;;;;;;4.88;4.10;;;20.90;58.30;;;;;;5003297;28;20034;-47
2022/07/31 01:50:06;;;;;;;5.22;3.80;;;20.90;58.40;;;;;;5003383;28;20034;-47
2022/07/31 01:52:33;;;;;;;6.10;4.47;;;20.80;58.10;;;;;;5002826;28;20113;-47
2022/07/31 01:55:00;;;;;;;6.50;4.40;;;20.80;58.30;;;;;;5003178;28;20037;-47
2022/07/31 01:57:28;;;;;;;5.43;3.70;;;20.70;57.90;;;;;;5002302;28;20694;-46
2022/07/31 01:59:58;;;;;;;5.68;4.03;;;20.80;58.50;;;;;;5002068;28;20105;-47
2022/07/31 02:02:25;;;;;;;6.68;4.53;;;20.80;58.80;;;;;;5003157;28;20022;-48
2022/07/31 02:04:52;;;;;;;5.72;4.32;;;20.80;58.10;;;;;;5002526;28;20025;-48
2022/07/31 02:07:19;;;;;;;5.18;4.45;;;20.80;58.10;;;;;;5002831;28;20601;-48
2022/07/31 02:09:46;;;;;;;5.78;4.60;;;20.70;58.10;;;;;;5002640;28;20697;-47
2022/07/31 02:12:13;;;;;;;5.85;4.55;;;20.70;58.00;;;;;;5003725;28;20022;-45
2022/07/31 02:14:40;;;;;;;8.35;4.22;;;20.70;58.00;;;;;;5002989;28;20581;-46
2022/07/31 02:17:08;;;;;;;5.13;3.95;;;20.70;58.20;;;;;;5002843;28;20044;-53
2022/07/31 02:19:39;;;;;;;5.13;4.15;;;20.70;57.60;;;;;;5003367;28;20049;-46
2022/07/31 02:22:06;;;;;;;5.60;4.30;;;20.60;57.90;;;;;;5001985;28;20116;-46
2022/07/31 02:24:33;;;;;;;5.95;3.80;;;20.60;57.90;;;;;;5002992;28;20079;-46
2022/07/31 02:27:00;;;;;;;4.47;3.65;;;20.70;58.20;;;;;;5003125;28;20037;-46
2022/07/31 02:29:29;;;;;;;4.60;3.55;;;20.60;58.00;;;;;;5003208;28;20045;-46
2022/07/31 02:31:57;;;;;;;4.95;3.67;;;20.70;57.90;;;;;;5003471;28;20056;-46
2022/07/31 02:34:23;;;;;;;6.38;3.90;;;20.70;58.30;;;;;;4983521;28;20038;-46
2022/07/31 02:36:52;;;;;;;6.07;4.10;;;20.70;57.70;;;;;;5002211;28;20034;-46
2022/07/31 02:39:19;;;;;;;5.03;4.15;;;20.70;58.20;;;;;;5002923;28;20053;-46
2022/07/31 02:41:46;;;;;;;6.10;4.03;;;20.70;58.00;;;;;;5002560;28;20022;-46
2022/07/31 02:44:13;;;;;;;6.55;3.83;;;20.70;58.40;;;;;;5003590;28;20736;-46
2022/07/31 02:46:41;;;;;;;5.50;3.92;;;20.80;58.50;;;;;;5005957;28;20091;-46
2022/07/31 02:49:08;;;;;;;6.32;3.65;;;20.80;58.00;;;;;;5006704;28;20022;-47
2022/07/31 02:51:34;;;;;;;5.07;3.55;;;20.80;58.30;;;;;;5005502;28;20033;-48
2022/07/31 02:54:00;;;;;;;7.45;4.20;;;20.90;57.90;;;;;;5006070;28;20049;-46
2022/07/31 02:56:29;;;;;;;6.03;4.25;;;20.80;57.40;;;;;;5006266;28;20057;-46
2022/07/31 02:58:54;;;;;;;6.05;3.90;;;20.80;57.80;;;;;;5006347;28;20022;-46
2022/07/31 03:01:20;;;;;;;6.68;4.07;;;20.80;57.90;;;;;;5006403;28;20026;-46
2022/07/31 03:03:46;;;;;;;5.53;4.50;;;20.80;58.00;;;;;;5006230;28;20041;-46
2022/07/31 03:06:11;;;;;;;6.65;3.95;;;20.80;57.80;;;;;;5005472;28;20026;-46
2022/07/31 03:08:37;;;;;;;8.82;4.38;;;20.80;57.30;;;;;;5005545;28;20030;-47
2022/07/31 03:11:03;;;;;;;7.88;4.32;;;20.70;57.70;;;;;;5005779;28;20041;-53
2022/07/31 03:13:30;;;;;;;6.28;3.80;;;20.80;58.10;;;;;;5005256;28;20058;-46
2022/07/31 03:15:57;;;;;;;5.25;3.88;;;20.80;58.10;;;;;;5004655;28;20537;-46
2022/07/31 03:18:24;;;;;;;6.10;4.07;;;20.80;57.90;;;;;;5006224;28;20558;-47
2022/07/31 03:20:50;;;;;;;6.05;4.15;;;20.80;57.50;;;;;;5005927;28;20096;-46
2022/07/31 03:23:20;;;;;;;5.50;4.15;;;20.80;57.50;;;;;;5005904;28;20025;-46
2022/07/31 03:25:48;;;;;;;4.80;4.13;;;20.90;57.50;;;;;;5005856;28;20747;-46
2022/07/31 03:28:14;;;;;;;4.85;3.75;;;20.80;57.20;;;;;;5005971;28;20534;-46
2022/07/31 03:30:39;;;;;;;6.10;3.88;;;20.80;57.90;;;;;;5006030;28;20029;-46
2022/07/31 03:33:05;;;;;;;6.75;4.07;;;20.80;57.40;;;;;;5005939;28;20030;-46
2022/07/31 03:35:32;;;;;;;5.50;4.30;;;20.80;57.50;;;;;;5004533;28;20037;-46
2022/07/31 03:37:59;;;;;;;5.82;4.25;;;20.70;57.60;;;;;;5006148;28;20405;-46
2022/07/31 03:40:25;;;;;;;5.20;4.13;;;20.70;58.30;;;;;;5005338;28;20038;-47
2022/07/31 03:42:52;;;;;;;5.45;4.60;;;20.70;58.10;;;;;;5006011;28;20650;-46
2022/07/31 03:45:19;;;;;;;4.57;3.70;;;20.70;57.90;;;;;;5005536;28;20034;-46
2022/07/31 03:47:45;;;;;;;5.93;4.22;;;20.70;57.90;;;;;;5005463;28;20116;-46
2022/07/31 03:50:12;;;;;;;5.43;3.95;;;20.80;58.20;;;;;;5005620;28;20116;-46
2022/07/31 03:52:39;;;;;;;5.45;4.10;;;20.80;57.90;;;;;;5005287;28;20125;-47
2022/07/31 03:55:06;;;;;;;5.40;4.20;;;20.80;57.80;;;;;;5005176;28;20115;-46
2022/07/31 03:57:33;;;;;;;5.88;4.88;;;20.80;57.80;;;;;;5004184;28;20032;-46
2022/07/31 04:00:01;;;;;;;4.82;4.30;;;20.80;57.40;;;;;;5004428;28;20113;-46
2022/07/31 04:02:27;;;;;;;6.13;4.30;;;20.80;57.80;;;;;;5005087;28;20036;-46
2022/07/31 04:04:54;;;;;;;6.35;4.22;;;20.70;57.70;;;;;;5004577;28;20022;-46
2022/07/31 04:07:20;;;;;;;6.88;4.55;;;20.70;58.00;;;;;;5005219;28;20026;-46
2022/07/31 04:09:46;;;;;;;5.30;4.28;;;20.70;58.10;;;;;;5004983;28;20044;-46
2022/07/31 04:12:12;;;;;;;6.00;4.78;;;20.80;58.10;;;;;;5005227;28;20107;-46
2022/07/31 04:14:37;;;;;;;5.85;4.50;;;20.80;58.10;;;;;;5004920;28;20034;-46
2022/07/31 04:17:03;;;;;;;5.65;4.32;;;20.80;57.90;;;;;;5004313;28;20054;-46
2022/07/31 04:19:32;;;;;;;7.57;5.03;;;20.80;57.90;;;;;;5004435;28;20651;-46
2022/07/31 04:21:58;;;;;;;5.53;4.75;;;20.80;57.70;;;;;;5004563;28;20076;-46
2022/07/31 04:24:24;;;;;;;6.82;4.80;;;20.70;58.00;;;;;;5004384;28;20034;-46
2022/07/31 04:26:53;;;;;;;7.07;4.80;;;20.70;57.90;;;;;;5004499;28;20022;-46
2022/07/31 04:29:18;;;;;;;5.90;4.47;;;20.60;58.00;;;;;;5004244;28;20034;-47
2022/07/31 04:31:44;;;;;;;5.82;4.65;;;20.70;58.10;;;;;;5004143;28;20105;-46
2022/07/31 04:34:10;;;;;;;5.45;4.00;;;20.70;58.30;;;;;;5004222;28;20068;-46
2022/07/31 04:36:36;;;;;;;4.70;4.15;;;20.70;58.00;;;;;;5003449;28;20022;-46
2022/07/31 04:39:03;;;;;;;5.82;4.90;;;20.80;58.10;;;;;;5004411;28;20026;-46
2022/07/31 04:41:29;;;;;;;5.95;5.15;;;20.80;57.60;;;;;;5003596;28;20617;-47
2022/07/31 04:43:58;;;;;;;5.93;4.70;;;20.70;57.90;;;;;;5004349;28;20023;-47
2022/07/31 04:46:25;;;;;;;5.57;4.60;;;20.80;58.00;;;;;;5003664;28;20443;-46
2022/07/31 04:48:51;;;;;;;5.82;4.75;;;20.70;58.00;;;;;;5004610;28;20594;-45
2022/07/31 04:51:18;;;;;;;5.45;4.10;;;20.80;58.20;;;;;;5003659;28;20092;-47
2022/07/31 04:53:45;;;;;;;7.95;4.50;;;20.90;58.00;;;;;;5003389;28;20054;-46
2022/07/31 04:58:55;;;;;;;5.75;5.00;;;20.90;58.00;;;;;;5004127;28;20025;-46
2022/07/31 05:01:21;;;;;;;6.07;5.13;;;21.00;57.40;;;;;;5003738;28;20030;-48
2022/07/31 05:03:47;;;;;;;5.20;4.68;;;21.00;57.80;;;;;;5035613;28;20101;-46
2022/07/31 05:06:13;;;;;;;5.70;4.82;;;21.00;57.70;;;;;;5003101;28;20018;-47
2022/07/31 05:08:39;;;;;;;6.20;4.63;;;21.10;57.60;;;;;;5003417;28;20025;-48
2022/07/31 05:11:23;;;;;;;5.68;4.97;;;21.10;57.70;;;;;;5003618;28;20076;-46
2022/07/31 05:13:54;;;;;;;5.10;4.22;;;21.10;57.60;;;;;;5035767;28;20022;-46
2022/07/31 05:16:20;;;;;;;5.93;4.70;;;21.10;57.80;;;;;;5003534;28;20034;-46
2022/07/31 05:18:47;;;;;;;7.18;5.10;;;21.20;57.60;;;;;;5003442;28;20029;-46
2022/07/31 05:21:14;;;;;;;7.85;5.25;;;21.20;57.20;;;;;;5003385;28;20113;-46
2022/07/31 05:23:41;;;;;;;6.03;5.30;;;21.20;57.10;;;;;;5002416;28;20045;-46
2022/07/31 05:26:07;;;;;;;6.22;5.18;;;21.10;57.50;;;;;;4984205;28;20570;-46
2022/07/31 05:28:33;;;;;;;6.80;4.75;;;21.10;57.60;;;;;;4983778;28;20034;-46
2022/07/31 05:30:59;;;;;;;5.53;4.78;;;21.10;57.30;;;;;;4984246;28;20042;-47
2022/07/31 05:33:25;;;;;;;7.93;4.40;;;21.10;57.30;;;;;;4995799;28;20037;-46
2022/07/31 05:35:50;;;;;;;5.53;4.65;;;21.10;57.50;;;;;;5002860;28;20034;-47
2022/07/31 05:38:16;;;;;;;6.28;4.90;;;21.10;58.00;;;;;;5003549;28;20063;-47
2022/07/31 05:40:42;;;;;;;5.95;4.15;;;21.10;57.60;;;;;;4999974;28;20109;-47
2022/07/31 05:43:07;;;;;;;5.47;4.95;;;21.20;57.50;;;;;;5002425;28;20037;-45
2022/07/31 05:45:33;;;;;;;5.90;4.75;;;21.20;57.30;;;;;;5002458;28;20022;-46
2022/07/31 05:47:59;;;;;;;6.03;4.40;;;21.30;57.50;;;;;;5002675;28;20029;-47
2022/07/31 05:50:24;;;;;;;5.03;4.43;;;21.30;57.60;;;;;;5001049;28;20113;-46
2022/07/31 05:52:50;;;;;;;5.95;4.57;;;21.40;57.10;;;;;;4980293;28;20114;-47
2022/07/31 05:55:16;;;;;;;5.70;4.30;;;21.40;57.10;;;;;;4983501;28;20518;-47
2022/07/31 05:57:41;;;;;;;6.22;4.90;;;21.40;57.30;;;;;;4983479;28;20073;-48
2022/07/31 06:00:08;;;;;;;5.60;4.70;;;21.40;56.60;;;;;;4983710;28;20414;-47
2022/07/31 06:02:34;;;;;;;5.75;4.70;;;21.40;57.20;;;;;;4988926;28;20029;-47
2022/07/31 06:05:01;;;;;;;5.22;4.40;;;21.50;56.90;;;;;;5002861;28;20084;-46
2022/07/31 06:07:27;;;;;;;4.90;4.40;;;21.50;56.70;;;;;;5003077;28;20465;-46
2022/07/31 06:09:53;;;;;;;6.38;4.75;;;21.50;56.40;;;;;;5002989;28;20608;-47
2022/07/31 06:12:18;;;;;;;7.10;4.93;;;21.50;56.30;;;;;;5002095;28;20034;-47
2022/07/31 06:14:44;;;;;;;6.85;4.47;;;21.50;56.60;;;;;;5003071;28;20409;-47
2022/07/31 06:17:11;;;;;;;4.82;4.25;;;21.50;57.00;;;;;;5001468;28;20337;-46
2022/07/31 06:19:37;;;;;;;5.22;4.47;;;21.50;56.90;;;;;;5003065;28;20032;-46
2022/07/31 06:22:02;;;;;;;5.60;4.65;;;21.50;56.80;;;;;;5003256;28;20021;-46
2022/07/31 06:24:28;;;;;;;6.50;4.47;;;21.60;56.80;;;;;;5003767;28;20061;-45
2022/07/31 06:27:01;;;;;;;10.27;5.18;;;21.60;56.20;;;;;;5005596;28;20045;-46
2022/07/31 06:29:27;;;;;;;4.95;4.22;;;21.70;56.80;;;;;;5004420;28;20025;-46
2022/07/31 06:31:56;;;;;;;6.55;4.90;;;21.70;56.50;;;;;;5003653;28;20033;-46
2022/07/31 06:34:24;;;;;;;5.65;4.65;;;21.70;57.00;;;;;;5003969;28;20018;-45
2022/07/31 06:36:50;;;;;;;5.57;4.60;;;21.70;55.70;;;;;;5001044;28;20030;-46
2022/07/31 06:39:16;;;;;;;4.70;4.00;;;21.70;56.60;;;;;;5003545;28;20037;-46
2022/07/31 06:41:48;;;;;;;5.82;4.75;;;21.70;56.80;;;;;;5005001;28;20022;-46
2022/07/31 06:44:15;;;;;;;4.63;4.07;;;21.70;56.50;;;;;;5001212;28;20105;-46
2022/07/31 06:46:40;;;;;;;5.32;3.72;;;21.80;56.60;;;;;;5004643;28;20319;-46
2022/07/31 06:49:06;;;;;;;5.13;4.25;;;21.70;56.20;;;;;;5004687;28;20105;-45
2022/07/31 06:51:33;;;;;;;5.05;4.53;;;21.80;56.20;;;;;;5003089;28;20104;-46
2022/07/31 06:54:03;;;;;;;5.82;4.10;;;21.80;55.30;;;;;;5003557;28;20679;-47
2022/07/31 06:56:30;;;;;;;5.40;4.10;;;21.80;55.60;;;;;;5004846;28;20049;-47
2022/07/31 06:58:56;;;;;;;6.30;4.10;;;21.80;55.50;;;;;;5018561;28;20018;-47
2022/07/31 07:01:22;;;;;;;6.68;4.05;;;21.80;55.50;;;;;;5005170;28;20041;-47
2022/07/31 07:03:48;;;;;;;5.10;3.85;;;21.80;56.30;;;;;;5003725;28;20442;-49
2022/07/31 07:06:13;;;;;;;4.40;3.45;;;21.80;55.00;;;;;;5004419;28;20105;-48
2022/07/31 07:08:39;;;;;;;5.85;4.07;;;21.80;55.40;;;;;;5003339;28;20022;-48
2022/07/31 07:11:05;;;;;;;4.38;3.63;;;21.80;55.20;;;;;;5004809;28;20036;-47
2022/07/31 07:13:30;;;;;;;5.32;4.18;;;21.90;55.50;;;;;;5003931;28;20430;-46
2022/07/31 07:15:56;;;;;;;7.32;4.47;;;21.90;55.70;;;;;;5001691;28;20453;-48
2022/07/31 07:18:22;;;;;;;5.88;4.05;;;21.90;54.80;;;;;;4997886;28;20092;-47
2022/07/31 07:20:51;;;;;;;7.15;4.55;;;21.90;54.30;;;;;;5000339;28;20096;-47
2022/07/31 07:23:18;;;;;;;4.22;3.50;;;21.90;54.80;;;;;;5005566;28;20104;-48
2022/07/31 07:25:44;;;;;;;5.20;3.95;;;21.90;54.90;;;;;;5004859;28;20820;-47
2022/07/31 07:28:10;;;;;;;4.75;3.28;;;21.90;53.90;;;;;;5005844;28;20112;-49
2022/07/31 07:30:36;;;;;;;4.65;3.72;;;21.90;53.90;;;;;;5004439;28;20034;-49
2022/07/31 07:33:01;;;;;;;4.97;3.70;;;21.90;54.70;;;;;;5005523;28;20037;-46
2022/07/31 07:35:27;;;;;;;4.43;3.17;;;21.90;53.00;;;;;;5004765;28;20041;-49
2022/07/31 07:37:53;;;;;;;6.00;3.33;;;21.90;53.40;;;;;;5005099;28;20168;-47
2022/07/31 07:40:20;;;;;;;5.50;3.70;;;21.90;54.30;;;;;;5005244;28;20096;-48
2022/07/31 07:42:46;;;;;;;6.40;3.33;;;21.90;54.00;;;;;;5003453;28;20034;-46
2022/07/31 07:45:12;;;;;;;5.25;3.38;;;22.00;53.20;;;;;;5004594;28;20045;-47
2022/07/31 07:47:38;;;;;;;5.10;3.47;;;22.00;53.20;;;;;;5005065;28;20034;-47
2022/07/31 07:50:08;;;;;;;5.70;3.47;;;22.00;52.90;;;;;;5004603;28;20026;-47
2022/07/31 07:52:34;;;;;;;6.10;3.45;;;22.00;53.00;;;;;;5004916;28;20665;-48
2022/07/31 07:55:00;;;;;;;5.30;3.90;;;22.00;53.30;;;;;;5004376;28;20216;-47
2022/07/31 07:57:26;;;;;;;4.47;3.10;;;22.00;53.40;;;;;;5004922;28;20101;-49
2022/07/31 07:59:52;;;;;;;5.85;3.78;;;22.10;54.00;;;;;;5003977;28;20030;-46
2022/07/31 08:02:18;;;;;;;5.15;3.55;;;22.10;54.50;;;;;;5004301;28;20036;-48
2022/07/31 08:04:43;;;;;;;5.00;3.45;;;22.20;53.70;;;;;;5005019;28;20022;-47
2022/07/31 08:07:10;;;;;;;5.32;4.15;;;22.20;53.80;;;;;;5004419;28;20029;-46
2022/07/31 08:09:36;;;;;;;5.13;3.83;;;22.30;54.30;;;;;;5004387;28;20026;-48
2022/07/31 08:12:03;;;;;;;5.40;4.00;;;22.30;53.70;;;;;;5004639;28;20406;-48
2022/07/31 08:14:29;;;;;;;5.97;3.58;;;22.30;53.70;;;;;;4989418;28;20126;-48
2022/07/31 08:16:55;;;;;;;4.68;3.65;;;22.30;54.30;;;;;;4985468;28;20113;-47
2022/07/31 08:19:21;;;;;;;8.45;3.50;;;22.40;54.50;;;;;;4984764;28;20077;-47
2022/07/31 08:21:47;;;;;;;5.13;3.35;;;22.40;54.00;;;;;;4997961;28;20027;-46
2022/07/31 08:24:15;;;;;;;4.10;3.30;;;22.50;53.70;;;;;;5000758;28;20038;-46
2022/07/31 08:29:26;;;;;;;5.03;3.35;;;22.50;52.30;;;;;;5003393;28;20755;-48
2022/07/31 08:31:52;;;;;;;11.45;3.33;;;22.50;52.60;;;;;;5003201;28;20026;-47
2022/07/31 08:34:18;;;;;;;4.30;3.28;;;22.50;51.90;;;;;;5019611;28;20026;-48
2022/07/31 08:36:43;;;;;;;5.93;4.10;;;22.60;52.40;;;;;;5003697;28;20021;-47
2022/07/31 08:39:09;;;;;;;6.15;4.00;;;22.60;52.30;;;;;;5003859;28;20049;-50
2022/07/31 08:41:39;;;;;;;5.70;3.22;;;22.60;53.00;;;;;;5003530;28;20445;-48
2022/07/31 08:44:05;;;;;;;4.22;3.40;;;22.70;52.80;;;;;;5003349;28;20033;-47
2022/07/31 08:46:35;;;;;;;4.85;3.28;;;22.70;52.30;;;;;;5003200;28;20512;-48
2022/07/31 08:49:02;;;;;;;7.43;3.20;;;22.70;52.20;;;;;;5004023;28;20057;-47
2022/07/31 08:51:31;;;;;;;5.38;3.08;;;22.70;52.20;;;;;;5003667;28;20026;-48
2022/07/31 08:53:58;;;;;;;4.80;3.17;;;22.80;51.80;;;;;;5004044;28;20030;-48
2022/07/31 08:56:24;;;;;;;4.55;3.38;;;22.90;51.90;;;;;;5003039;28;20562;-48
2022/07/31 08:58:50;;;;;;;6.43;3.75;;;22.90;51.70;;;;;;5003742;28;20026;-47
2022/07/31 09:01:16;;;;;;;4.18;3.10;;;22.90;52.00;;;;;;5003825;28;20042;-50
2022/07/31 09:03:43;;;;;;;5.25;3.13;;;23.00;52.20;;;;;;5003499;28;20026;-47
2022/07/31 09:06:09;;;;;;;5.85;3.15;;;23.00;52.50;;;;;;5002973;28;20597;-48
2022/07/31 09:08:36;;;;;;;5.35;3.60;;;23.10;52.30;;;;;;5002097;28;20018;-49
2022/07/31 09:11:11;;;;;;;4.38;2.80;;;23.10;49.80;;;;;;5003380;28;20040;-48
2022/07/31 09:13:37;;;;;;;5.68;3.22;;;23.10;50.50;;;;;;5002990;28;20462;-46
2022/07/31 09:16:03;;;;;;;3.97;2.65;;;23.20;50.20;;;;;;5003601;28;20109;-46
2022/07/31 09:18:30;;;;;;;5.97;3.17;;;23.20;50.40;;;;;;4996625;28;20113;-48
2022/07/31 09:20:57;;;;;;;4.15;2.95;;;23.20;48.80;;;;;;4997605;28;20037;-47
2022/07/31 09:23:25;;;;;;;4.28;2.67;;;23.20;49.40;;;;;;4992934;28;20112;-47
2022/07/31 09:26:04;;;;;;;4.97;2.50;;;23.30;50.10;;;;;;4996755;28;20023;-47
2022/07/31 09:28:35;;;;;;;5.80;3.15;;;23.30;49.70;;;;;;4998561;28;20021;-49
2022/07/31 09:31:01;;;;;;;3.58;2.10;;;23.30;47.20;;;;;;5003593;28;20159;-49
2022/07/31 09:33:29;;;;;;;4.75;2.40;;;23.40;46.20;;;;;;5002510;28;20030;-49
2022/07/31 09:35:56;;;;;;;4.88;2.65;;;23.40;45.90;;;;;;4998206;28;20141;-49
2022/07/31 09:38:32;;;;;;;3.70;2.45;;;23.50;46.40;;;;;;5002229;28;20100;-50
2022/07/31 09:41:14;;;;;;;3.45;2.00;;;23.50;47.00;;;;;;4998572;28;20594;-48
2022/07/31 09:43:41;;;;;;;4.13;2.58;;;23.50;47.90;;;;;;5002325;28;20038;-50
2022/07/31 09:46:07;;;;;;;4.88;2.40;;;23.50;45.30;;;;;;5002487;28;20022;-49
2022/07/31 09:48:35;;;;;;;4.78;2.40;;;23.50;46.80;;;;;;5001238;28;20022;-49
2022/07/31 09:51:04;;;;;;;4.97;2.13;;;23.60;46.50;;;;;;5000419;28;20032;-48
2022/07/31 09:53:41;;;;;;;3.83;2.38;;;23.60;46.40;;;;;;5002294;28;20033;-48
2022/07/31 09:56:11;;;;;;;3.85;2.47;;;23.60;45.40;;;;;;5001292;28;20020;-48
2022/07/31 09:58:39;;;;;;;4.88;2.50;;;23.60;44.20;;;;;;4998999;28;20060;-49
2022/07/31 10:01:06;;;;;;;3.42;1.98;;;23.70;45.70;;;;;;4997475;28;20030;-49
2022/07/31 10:03:35;;;;;;;3.00;1.90;;;23.70;45.90;;;;;;5000831;28;20022;-47
2022/07/31 10:06:02;;;;;;;3.50;1.98;;;23.70;45.00;;;;;;5002363;28;20529;-50
2022/07/31 10:08:28;;;;;;;4.10;2.22;;;23.80;45.60;;;;;;5002415;28;20026;-49
2022/07/31 10:10:54;;;;;;;4.32;2.55;;;23.80;45.20;;;;;;5002604;28;20061;-48
2022/07/31 10:13:21;;;;;;;3.22;1.90;;;23.80;45.90;;;;;;4998745;28;20069;-50
2022/07/31 10:15:49;;;;;;;3.00;1.88;;;23.80;44.50;;;;;;5002607;28;20029;-49
2022/07/31 10:18:16;;;;;;;4.15;2.58;;;23.90;45.10;;;;;;5003286;28;20034;-50
2022/07/31 10:20:48;;;;;;;3.05;1.88;;;23.90;43.90;;;;;;5002141;28;20036;-47
2022/07/31 10:23:17;;;;;;;4.65;2.50;;;24.00;45.20;;;;;;4983207;28;20450;-48
2022/07/31 10:25:51;;;;;;;3.55;2.30;;;24.00;45.50;;;;;;4996978;28;20098;-49
2022/07/31 10:28:16;;;;;;;4.25;2.40;;;24.00;45.10;;;;;;4983933;28;20027;-48
2022/07/31 10:30:45;;;;;;;3.38;2.28;;;24.00;44.30;;;;;;4988123;28;20026;-49
2022/07/31 10:33:11;;;;;;;3.30;2.10;;;24.00;45.20;;;;;;4999670;28;20056;-51
2022/07/31 10:36:03;;;;;;;3.60;2.05;;;24.10;44.90;;;;;;5001683;28;20025;-50
2022/07/31 10:38:42;;;;;;;3.90;1.90;;;24.10;45.10;;;;;;5001076;28;20117;-50
2022/07/31 10:41:43;;;;;;;3.70;2.00;;;24.10;44.50;;;;;;5000339;28;20788;-49
2022/07/31 10:44:18;;;;;;;3.80;2.30;;;24.20;44.30;;;;;;5001471;28;20062;-51
2022/07/31 10:46:43;;;;;;;3.45;2.03;;;24.20;43.70;;;;;;4998661;28;20030;-48
2022/07/31 10:49:09;;;;;;;3.25;1.95;;;24.30;43.80;;;;;;4999001;28;20041;-48
2022/07/31 10:51:46;;;;;;;3.30;1.90;;;24.30;45.70;;;;;;4998417;28;20030;-49
2022/07/31 10:54:13;;;;;;;3.75;2.05;;;24.30;44.50;;;;;;4999998;28;20030;-49
2022/07/31 10:56:43;;;;;;;3.50;2.20;;;24.40;45.70;;;;;;4998524;28;20554;-49
2022/07/31 10:59:10;;;;;;;3.47;2.20;;;24.40;44.00;;;;;;5000912;28;20176;-49
2022/07/31 11:01:50;;;;;;;3.75;2.10;;;24.40;44.10;;;;;;5001577;28;20126;-50
2022/07/31 11:04:31;;;;;;;3.10;2.03;;;24.40;43.70;;;;;;5000686;28;20014;-49
2022/07/31 11:06:57;;;;;;;4.10;2.20;;;24.50;44.50;;;;;;5008897;28;20025;-50
2022/07/31 11:09:25;;;;;;;5.45;2.15;;;24.50;44.50;;;;;;5023814;28;20049;-49
2022/07/31 11:11:52;;;;;;;3.50;2.30;;;24.50;44.40;;;;;;5012289;28;20502;-50
2022/07/31 11:14:17;;;;;;;3.67;2.25;;;24.50;44.10;;;;;;5004809;28;20034;-50
2022/07/31 11:16:50;;;;;;;3.53;2.17;;;24.60;44.20;;;;;;5004733;28;20080;-51
2022/07/31 11:19:16;;;;;;;3.65;2.13;;;24.60;43.00;;;;;;5005709;28;20037;-47
2022/07/31 11:21:42;;;;;;;2.88;1.85;;;24.60;44.20;;;;;;5003584;28;20038;-47
2022/07/31 11:24:19;;;;;;;4.25;2.10;;;24.60;44.90;;;;;;5004177;28;20032;-48
2022/07/31 11:26:54;;;;;;;3.83;1.95;;;24.70;44.80;;;;;;4994582;28;20030;-48
2022/07/31 11:29:26;;;;;;;3.83;2.15;;;24.70;44.00;;;;;;5005782;28;20018;-49
2022/07/31 11:31:52;;;;;;;2.78;1.85;;;24.70;44.10;;;;;;5004962;28;20034;-48
2022/07/31 11:34:18;;;;;;;3.85;2.00;;;24.70;43.50;;;;;;5005261;28;20034;-48
2022/07/31 11:36:43;;;;;;;3.10;2.17;;;24.70;43.90;;;;;;5004197;28;20058;-48
2022/07/31 11:39:11;;;;;;;4.80;2.42;;;24.80;43.40;;;;;;5006070;28;20033;-48
2022/07/31 11:41:38;;;;;;;3.70;1.98;;;24.80;43.40;;;;;;5006521;28;20022;-47
2022/07/31 11:44:04;;;;;;;3.95;2.30;;;24.80;43.50;;;;;;5005068;28;20037;-53
2022/07/31 11:46:32;;;;;;;4.07;2.10;;;24.80;43.50;;;;;;5004478;28;20034;-48
2022/07/31 11:48:59;;;;;;;3.92;2.47;;;24.80;42.80;;;;;;5005229;28;20113;-48
2022/07/31 11:51:26;;;;;;;4.63;2.30;;;24.80;42.70;;;;;;5004223;28;20474;-48
2022/07/31 11:53:54;;;;;;;2.75;1.73;;;24.80;42.40;;;;;;5004741;28;20049;-48
2022/07/31 11:56:20;;;;;;;4.30;2.08;;;24.90;43.40;;;;;;5004947;28;20580;-48
2022/07/31 11:58:51;;;;;;;3.58;2.30;;;24.90;43.70;;;;;;5005277;28;20058;-48
2022/07/31 12:01:18;;;;;;;3.88;2.20;;;24.90;43.10;;;;;;5004412;28;20037;-49
2022/07/31 12:03:45;;;;;;;3.83;2.20;;;24.90;43.00;;;;;;5004385;28;20108;-49
2022/07/31 12:06:12;;;;;;;3.85;2.20;;;24.90;43.00;;;;;;5003787;28;20037;-49
2022/07/31 12:08:39;;;;;;;4.55;2.00;;;24.90;42.40;;;;;;5004894;28;20032;-48
2022/07/31 12:11:07;;;;;;;3.28;1.90;;;24.90;42.80;;;;;;5004442;28;20656;-47
2022/07/31 12:13:33;;;;;;;4.68;1.85;;;25.00;43.40;;;;;;5004457;28;20026;-47
2022/07/31 12:16:07;;;;;;;4.93;2.50;;;25.00;43.20;;;;;;5004115;28;20045;-48
2022/07/31 12:18:55;;;;;;;3.42;2.13;;;25.00;41.30;;;;;;5003209;28;20022;-48
2022/07/31 12:21:33;;;;;;;3.92;2.10;;;25.10;42.80;;;;;;5004893;28;20398;-48
2022/07/31 12:23:59;;;;;;;3.83;2.20;;;25.10;42.10;;;;;;5004616;28;20050;-48
2022/07/31 12:26:26;;;;;;;3.13;1.80;;;25.20;42.40;;;;;;5004215;28;20061;-48
2022/07/31 12:29:11;;;;;;;3.45;1.98;;;25.20;41.50;;;;;;5003778;28;20025;-46
2022/07/31 12:31:49;;;;;;;4.40;1.92;;;25.20;42.60;;;;;;5004244;28;20029;-46
2022/07/31 12:34:37;;;;;;;5.82;2.20;;;25.20;42.30;;;;;;5003093;28;20033;-48
2022/07/31 12:37:03;;;;;;;3.83;2.00;;;25.20;43.10;;;;;;5003623;28;20064;-47
2022/07/31 12:39:31;;;;;;;3.10;1.98;;;25.20;41.50;;;;;;5003969;28;20041;-48
2022/07/31 12:41:57;;;;;;;4.18;2.63;;;25.20;41.70;;;;;;5003743;28;20036;-48
2022/07/31 12:44:23;;;;;;;4.93;2.42;;;25.30;43.00;;;;;;5001774;28;20026;-49
2022/07/31 12:46:49;;;;;;;4.10;2.17;;;25.20;43.00;;;;;;4999067;28;20442;-49
2022/07/31 12:49:15;;;;;;;4.60;2.08;;;25.30;42.30;;;;;;5003636;28;20675;-48
2022/07/31 12:51:41;;;;;;;3.00;2.05;;;25.30;42.00;;;;;;5002890;28;20037;-47
2022/07/31 12:54:08;;;;;;;3.22;2.20;;;25.30;42.80;;;;;;5003972;28;20034;-48
2022/07/31 12:56:36;;;;;;;3.55;2.00;;;25.30;40.80;;;;;;5003502;28;20034;-48